Station History

Weather Underground - logo

Station Historical Data
Daily Summary for January 14, 2018 Units:  Both    English   Metric
« Previous Day
Next Day »
Daily Weekly Monthly Yearly Custom
  High: Low: Average:
Temperature: 56.6 °F /  13.7 °C 45.8 °F /  7.7 °C 49.4 °F /  9.7 °C
Dew Point: 51.4 °F /  10.8 °C 44.7 °F /  7.1 °C 47.6 °F /  8.7 °C
Humidity: 98 % 81 % 94 %
Wind Speed: 4.0 mph /  6.4 km/h - 0.5 mph /  0.8 km/h
Wind Gust: 4.0 mph /  6.4 km/h - -
Wind:- - WSW
Pressure: 30.25 in /  1024.3 hPa 30.13 in /  1020.2 hPa -
Precipitation: 0.00 in /  0 mm    
Historical Graphs
 
 
Tabular Data for January 14, 2018
Time Temperature Dew Point Pressure Wind Wind Speed Wind Gust Humidity Rainfall Rate (Hourly)
00:04 48.6 °F /  9.2 °C 47.8 °F /  8.8 °C 30.24 in /  1023.9 hPa Calm     97 % 0.00 in /  0 mm
00:10 48.7 °F /  9.3 °C 47.9 °F /  8.8 °C 30.24 in /  1023.9 hPa Calm     97 % 0.00 in /  0 mm
00:16 48.7 °F /  9.3 °C 47.9 °F /  8.8 °C 30.24 in /  1023.9 hPa Calm     97 % 0.00 in /  0 mm
00:45 48.5 °F /  9.2 °C 47.7 °F /  8.7 °C 30.23 in /  1023.6 hPa Calm     97 % 0.00 in /  0 mm
00:59 48.3 °F /  9.1 °C 47.5 °F /  8.6 °C 30.22 in /  1023.2 hPa Calm     97 % 0.00 in /  0 mm
01:05 48.3 °F /  9.1 °C 47.5 °F /  8.6 °C 30.22 in /  1023.2 hPa Calm     97 % 0.00 in /  0 mm
01:11 48.3 °F /  9.1 °C 47.5 °F /  8.6 °C 30.22 in /  1023.2 hPa WNW 1.2 mph /  1.9 km/h 1.2 mph /  1.9 km/h 97 % 0.00 in /  0 mm
01:17 48.3 °F /  9.1 °C 47.5 °F /  8.6 °C 30.22 in /  1023.2 hPa Calm     97 % 0.00 in /  0 mm
01:29 48.3 °F /  9.1 °C 47.5 °F /  8.6 °C 30.22 in /  1023.2 hPa Calm     97 % 0.00 in /  0 mm
01:35 48.3 °F /  9.1 °C 47.5 °F /  8.6 °C 30.22 in /  1023.2 hPa Calm     97 % 0.00 in /  0 mm
01:50 48.3 °F /  9.1 °C 47.5 °F /  8.6 °C 30.22 in /  1023.2 hPa Calm     97 % 0.00 in /  0 mm
02:01 48.3 °F /  9.1 °C 47.5 °F /  8.6 °C 30.22 in /  1023.2 hPa Calm     97 % 0.00 in /  0 mm
02:09 48.3 °F /  9.1 °C 47.5 °F /  8.6 °C 30.23 in /  1023.6 hPa Calm     97 % 0.00 in /  0 mm
02:21 48.2 °F /  9 °C 47.4 °F /  8.6 °C 30.22 in /  1023.2 hPa Calm     97 % 0.00 in /  0 mm
02:31 48.3 °F /  9.1 °C 47.5 °F /  8.6 °C 30.23 in /  1023.6 hPa Calm     97 % 0.00 in /  0 mm
02:40 48.1 °F /  8.9 °C 47.3 °F /  8.5 °C 30.23 in /  1023.6 hPa Calm     97 % 0.00 in /  0 mm
02:45 48.1 °F /  8.9 °C 47.3 °F /  8.5 °C 30.23 in /  1023.6 hPa Calm     97 % 0.00 in /  0 mm
02:59 48.1 °F /  8.9 °C 47.3 °F /  8.5 °C 30.24 in /  1023.9 hPa Calm     97 % 0.00 in /  0 mm
03:06 48.1 °F /  8.9 °C 47.3 °F /  8.5 °C 30.24 in /  1023.9 hPa Calm     97 % 0.00 in /  0 mm
03:37 48.1 °F /  8.9 °C 47.3 °F /  8.5 °C 30.24 in /  1023.9 hPa Calm     97 % 0.00 in /  0 mm
03:44 48.0 °F /  8.9 °C 47.2 °F /  8.4 °C 30.24 in /  1023.9 hPa Calm     97 % 0.00 in /  0 mm
03:55 48.0 °F /  8.9 °C 47.2 °F /  8.4 °C 30.24 in /  1023.9 hPa Calm     97 % 0.00 in /  0 mm
04:07 48.1 °F /  8.9 °C 47.3 °F /  8.5 °C 30.23 in /  1023.6 hPa Calm     97 % 0.00 in /  0 mm
04:12 48.1 °F /  8.9 °C 47.3 °F /  8.5 °C 30.23 in /  1023.6 hPa Calm     97 % 0.00 in /  0 mm
04:23 48.0 °F /  8.9 °C 47.2 °F /  8.4 °C 30.23 in /  1023.6 hPa Calm     97 % 0.00 in /  0 mm
04:30 48.0 °F /  8.9 °C 47.2 °F /  8.4 °C 30.23 in /  1023.6 hPa Calm     97 % 0.00 in /  0 mm
04:37 48.0 °F /  8.9 °C 47.2 °F /  8.4 °C 30.22 in /  1023.2 hPa Calm     97 % 0.00 in /  0 mm
04:43 47.9 °F /  8.8 °C 47.1 °F /  8.4 °C 30.21 in /  1022.9 hPa Calm     97 % 0.00 in /  0 mm
04:53 47.9 °F /  8.8 °C 47.1 °F /  8.4 °C 30.21 in /  1022.9 hPa Calm     97 % 0.00 in /  0 mm
04:59 47.8 °F /  8.8 °C 47.0 °F /  8.3 °C 30.20 in /  1022.6 hPa Calm     97 % 0.00 in /  0 mm
05:07 47.7 °F /  8.7 °C 46.9 °F /  8.3 °C 30.20 in /  1022.6 hPa SE 1.2 mph /  1.9 km/h 1.2 mph /  1.9 km/h 97 % 0.00 in /  0 mm
05:13 47.7 °F /  8.7 °C 46.9 °F /  8.3 °C 30.20 in /  1022.6 hPa ESE 1.2 mph /  1.9 km/h 1.2 mph /  1.9 km/h 97 % 0.00 in /  0 mm
05:22 47.5 °F /  8.6 °C 46.7 °F /  8.2 °C 30.20 in /  1022.6 hPa ESE 1.2 mph /  1.9 km/h   97 % 0.00 in /  0 mm
05:28 47.5 °F /  8.6 °C 46.7 °F /  8.2 °C 30.20 in /  1022.6 hPa Calm     97 % 0.00 in /  0 mm
05:36 47.3 °F /  8.5 °C 46.5 °F /  8.1 °C 30.19 in /  1022.2 hPa ESE 1.2 mph /  1.9 km/h 1.2 mph /  1.9 km/h 97 % 0.00 in /  0 mm
05:41 47.3 °F /  8.5 °C 46.5 °F /  8.1 °C 30.19 in /  1022.2 hPa ESE 1.2 mph /  1.9 km/h 1.2 mph /  1.9 km/h 97 % 0.00 in /  0 mm
06:04 47.1 °F /  8.4 °C 46.3 °F /  7.9 °C 30.20 in /  1022.6 hPa ESE 1.2 mph /  1.9 km/h 1.2 mph /  1.9 km/h 97 % 0.00 in /  0 mm
06:10 47.1 °F /  8.4 °C 46.3 °F /  7.9 °C 30.20 in /  1022.6 hPa ESE 1.2 mph /  1.9 km/h   97 % 0.00 in /  0 mm
06:19 47.1 °F /  8.4 °C 46.3 °F /  7.9 °C 30.21 in /  1022.9 hPa ESE 1.2 mph /  1.9 km/h   97 % 0.00 in /  0 mm
06:27 47.1 °F /  8.4 °C 46.3 °F /  7.9 °C 30.20 in /  1022.6 hPa ESE 1.2 mph /  1.9 km/h   97 % 0.00 in /  0 mm
06:33 47.1 °F /  8.4 °C 46.3 °F /  7.9 °C 30.20 in /  1022.6 hPa Calm     97 % 0.00 in /  0 mm
06:39 47.1 °F /  8.4 °C 46.3 °F /  7.9 °C 30.20 in /  1022.6 hPa Calm     97 % 0.00 in /  0 mm
06:47 47.1 °F /  8.4 °C 46.3 °F /  7.9 °C 30.21 in /  1022.9 hPa Calm     97 % 0.00 in /  0 mm
07:02 47.0 °F /  8.3 °C 46.2 °F /  7.9 °C 30.21 in /  1022.9 hPa Calm     97 % 0.00 in /  0 mm
07:09 47.0 °F /  8.3 °C 46.2 °F /  7.9 °C 30.21 in /  1022.9 hPa Calm     97 % 0.00 in /  0 mm
07:17 47.1 °F /  8.4 °C 46.3 °F /  7.9 °C 30.21 in /  1022.9 hPa Calm     97 % 0.00 in /  0 mm
07:24 47.0 °F /  8.3 °C 46.2 °F /  7.9 °C 30.22 in /  1023.2 hPa Calm     97 % 0.00 in /  0 mm
07:30 47.0 °F /  8.3 °C 46.2 °F /  7.9 °C 30.22 in /  1023.2 hPa Calm     97 % 0.00 in /  0 mm
07:47 47.1 °F /  8.4 °C 46.3 °F /  7.9 °C 30.22 in /  1023.2 hPa Calm     97 % 0.00 in /  0 mm
07:59 47.1 °F /  8.4 °C 46.3 °F /  7.9 °C 30.22 in /  1023.2 hPa Calm     97 % 0.00 in /  0 mm
08:04 47.1 °F /  8.4 °C 46.3 °F /  7.9 °C 30.22 in /  1023.2 hPa Calm     97 % 0.00 in /  0 mm
08:15 47.2 °F /  8.4 °C 46.4 °F /  8 °C 30.23 in /  1023.6 hPa Calm     97 % 0.00 in /  0 mm
08:25 47.2 °F /  8.4 °C 46.4 °F /  8 °C 30.23 in /  1023.6 hPa Calm     97 % 0.00 in /  0 mm
08:42 47.2 °F /  8.4 °C 46.4 °F /  8 °C 30.23 in /  1023.6 hPa ESE 1.2 mph /  1.9 km/h 1.2 mph /  1.9 km/h 97 % 0.00 in /  0 mm
08:54 47.3 °F /  8.5 °C 46.5 °F /  8.1 °C 30.23 in /  1023.6 hPa Calm     97 % 0.00 in /  0 mm
09:02 47.3 °F /  8.5 °C 46.5 °F /  8.1 °C 30.24 in /  1023.9 hPa Calm     97 % 0.00 in /  0 mm
09:09 47.6 °F /  8.7 °C 46.8 °F /  8.2 °C 30.23 in /  1023.6 hPa Calm     97 % 0.00 in /  0 mm
09:19 47.9 °F /  8.8 °C 47.4 °F /  8.6 °C 30.23 in /  1023.6 hPa Calm     98 % 0.00 in /  0 mm
09:31 47.8 °F /  8.8 °C 47.0 °F /  8.3 °C 30.24 in /  1023.9 hPa NW 1.2 mph /  1.9 km/h 1.2 mph /  1.9 km/h 97 % 0.00 in /  0 mm
09:38 47.9 °F /  8.8 °C 47.1 °F /  8.4 °C 30.24 in /  1023.9 hPa Calm     97 % 0.00 in /  0 mm
09:55 48.1 °F /  8.9 °C 47.3 °F /  8.5 °C 30.24 in /  1023.9 hPa Calm     97 % 0.00 in /  0 mm
10:04 48.2 °F /  9 °C 47.4 °F /  8.6 °C 30.24 in /  1023.9 hPa NW 1.2 mph /  1.9 km/h 1.2 mph /  1.9 km/h 97 % 0.00 in /  0 mm
10:10 48.2 °F /  9 °C 47.4 °F /  8.6 °C 30.24 in /  1023.9 hPa Calm     97 % 0.00 in /  0 mm
10:31 48.7 °F /  9.3 °C 47.9 °F /  8.8 °C 30.24 in /  1023.9 hPa NW 3.5 mph /  5.6 km/h 3.5 mph /  5.6 km/h 97 % 0.00 in /  0 mm
10:41 49.0 °F /  9.4 °C 47.9 °F /  8.8 °C 30.24 in /  1023.9 hPa Calm     96 % 0.00 in /  0 mm
10:47 49.1 °F /  9.5 °C 48.0 °F /  8.9 °C 30.24 in /  1023.9 hPa NW 3.5 mph /  5.6 km/h 3.5 mph /  5.6 km/h 96 % 0.00 in /  0 mm
10:53 49.1 °F /  9.5 °C 48.0 °F /  8.9 °C 30.24 in /  1023.9 hPa NW 2.3 mph /  3.7 km/h 2.3 mph /  3.7 km/h 96 % 0.00 in /  0 mm
11:08 49.4 °F /  9.7 °C 48.0 °F /  8.9 °C 30.25 in /  1024.3 hPa North 3.5 mph /  5.6 km/h 3.5 mph /  5.6 km/h 95 % 0.00 in /  0 mm
11:13 49.3 °F /  9.6 °C 47.6 °F /  8.7 °C 30.25 in /  1024.3 hPa NNW 2.3 mph /  3.7 km/h 2.3 mph /  3.7 km/h 94 % 0.00 in /  0 mm
11:27 49.7 °F /  9.8 °C 48.0 °F /  8.9 °C 30.24 in /  1023.9 hPa NNW 3.5 mph /  5.6 km/h 3.5 mph /  5.6 km/h 94 % 0.00 in /  0 mm
11:38 50.0 °F /  10 °C 48.1 °F /  8.9 °C 30.24 in /  1023.9 hPa NNW 4.0 mph /  6.4 km/h 4.0 mph /  6.4 km/h 93 % 0.00 in /  0 mm
11:47 50.1 °F /  10.1 °C 48.2 °F /  9 °C 30.23 in /  1023.6 hPa NNW 3.0 mph /  4.8 km/h 3.0 mph /  4.8 km/h 93 % 0.00 in /  0 mm
11:54 50.1 °F /  10.1 °C 48.2 °F /  9 °C 30.23 in /  1023.6 hPa WNW 1.2 mph /  1.9 km/h 1.2 mph /  1.9 km/h 93 % 0.00 in /  0 mm
12:02 50.4 °F /  10.2 °C 48.5 °F /  9.2 °C 30.23 in /  1023.6 hPa WSW 2.3 mph /  3.7 km/h 2.3 mph /  3.7 km/h 93 % 0.00 in /  0 mm
12:10 50.7 °F /  10.4 °C 48.7 °F /  9.3 °C 30.22 in /  1023.2 hPa NW 1.2 mph /  1.9 km/h 1.2 mph /  1.9 km/h 93 % 0.00 in /  0 mm
12:19 51.2 °F /  10.7 °C 49.0 °F /  9.4 °C 30.21 in /  1022.9 hPa SE 1.0 mph /  1.6 km/h   92 % 0.00 in /  0 mm
12:25 51.7 °F /  10.9 °C 49.2 °F /  9.6 °C 30.21 in /  1022.9 hPa SE 3.5 mph /  5.6 km/h 3.5 mph /  5.6 km/h 91 % 0.00 in /  0 mm
12:32 51.8 °F /  11 °C 49.0 °F /  9.4 °C 30.21 in /  1022.9 hPa Calm     90 % 0.00 in /  0 mm
12:39 52.1 °F /  11.2 °C 49.3 °F /  9.6 °C 30.20 in /  1022.6 hPa Calm     90 % 0.00 in /  0 mm
12:47 52.4 °F /  11.3 °C 49.6 °F /  9.8 °C 30.20 in /  1022.6 hPa SSE 1.2 mph /  1.9 km/h 1.2 mph /  1.9 km/h 90 % 0.00 in /  0 mm
13:05 53.9 °F /  12.2 °C 50.4 °F /  10.2 °C 30.18 in /  1021.9 hPa SE 1.2 mph /  1.9 km/h   88 % 0.00 in /  0 mm
13:11 54.4 °F /  12.4 °C 50.3 °F /  10.2 °C 30.18 in /  1021.9 hPa NW 1.2 mph /  1.9 km/h 1.2 mph /  1.9 km/h 86 % 0.00 in /  0 mm
13:18 54.5 °F /  12.5 °C 50.1 °F /  10.1 °C 30.18 in /  1021.9 hPa West 2.3 mph /  3.7 km/h 2.3 mph /  3.7 km/h 85 % 0.00 in /  0 mm
13:29 55.2 °F /  12.9 °C 50.4 °F /  10.2 °C 30.17 in /  1021.6 hPa ENE 1.2 mph /  1.9 km/h 1.2 mph /  1.9 km/h 84 % 0.00 in /  0 mm
13:44 56.5 °F /  13.6 °C 51.4 °F /  10.8 °C 30.17 in /  1021.6 hPa NW 1.2 mph /  1.9 km/h   83 % 0.00 in /  0 mm
13:57 56.4 °F /  13.6 °C 51.0 °F /  10.6 °C 30.17 in /  1021.6 hPa NW 1.2 mph /  1.9 km/h 1.2 mph /  1.9 km/h 82 % 0.00 in /  0 mm
14:21 56.5 °F /  13.6 °C 50.7 °F /  10.4 °C 30.17 in /  1021.6 hPa NNW 1.2 mph /  1.9 km/h 1.2 mph /  1.9 km/h 81 % 0.00 in /  0 mm
14:27 56.5 °F /  13.6 °C 50.7 °F /  10.4 °C 30.17 in /  1021.6 hPa NW 1.2 mph /  1.9 km/h   81 % 0.00 in /  0 mm
14:37 56.6 °F /  13.7 °C 50.8 °F /  10.4 °C 30.18 in /  1021.9 hPa NW 1.0 mph /  1.6 km/h   81 % 0.00 in /  0 mm
14:44 56.4 °F /  13.6 °C 50.6 °F /  10.3 °C 30.18 in /  1021.9 hPa NW 2.3 mph /  3.7 km/h 2.3 mph /  3.7 km/h 81 % 0.00 in /  0 mm
14:51 56.2 °F /  13.4 °C 50.4 °F /  10.2 °C 30.18 in /  1021.9 hPa WNW 2.3 mph /  3.7 km/h 2.3 mph /  3.7 km/h 81 % 0.00 in /  0 mm
14:58 56.2 °F /  13.4 °C 50.4 °F /  10.2 °C 30.18 in /  1021.9 hPa NW 2.3 mph /  3.7 km/h 2.3 mph /  3.7 km/h 81 % 0.00 in /  0 mm
15:07 56.4 °F /  13.6 °C 51.0 °F /  10.6 °C 30.17 in /  1021.6 hPa NW 1.2 mph /  1.9 km/h 1.2 mph /  1.9 km/h 82 % 0.00 in /  0 mm
15:12 56.3 °F /  13.5 °C 50.5 °F /  10.3 °C 30.17 in /  1021.6 hPa WNW 2.0 mph /  3.2 km/h 2.0 mph /  3.2 km/h 81 % 0.00 in /  0 mm
15:30 56.0 °F /  13.3 °C 50.6 °F /  10.3 °C 30.17 in /  1021.6 hPa WNW 1.2 mph /  1.9 km/h 1.2 mph /  1.9 km/h 82 % 0.00 in /  0 mm
15:44 55.9 °F /  13.3 °C 50.8 °F /  10.4 °C 30.16 in /  1021.2 hPa Calm     83 % 0.00 in /  0 mm
15:50 56.1 °F /  13.4 °C 50.7 °F /  10.4 °C 30.16 in /  1021.2 hPa NNW 1.2 mph /  1.9 km/h   82 % 0.00 in /  0 mm
15:56 56.3 °F /  13.5 °C 50.9 °F /  10.5 °C 30.16 in /  1021.2 hPa NW 1.2 mph /  1.9 km/h 1.2 mph /  1.9 km/h 82 % 0.00 in /  0 mm
16:02 56.4 °F /  13.6 °C 50.6 °F /  10.3 °C 30.16 in /  1021.2 hPa Calm     81 % 0.00 in /  0 mm
16:09 56.5 °F /  13.6 °C 51.1 °F /  10.6 °C 30.16 in /  1021.2 hPa NW 1.0 mph /  1.6 km/h 1.0 mph /  1.6 km/h 82 % 0.00 in /  0 mm
16:17 56.6 °F /  13.7 °C 51.2 °F /  10.7 °C 30.16 in /  1021.2 hPa Calm     82 % 0.00 in /  0 mm
16:24 56.4 °F /  13.6 °C 51.0 °F /  10.6 °C 30.16 in /  1021.2 hPa Calm     82 % 0.00 in /  0 mm
16:37 55.7 °F /  13.2 °C 50.6 °F /  10.3 °C 30.16 in /  1021.2 hPa NW 1.2 mph /  1.9 km/h   83 % 0.00 in /  0 mm
16:57 53.9 °F /  12.2 °C 49.8 °F /  9.9 °C 30.14 in /  1020.5 hPa Calm     86 % 0.00 in /  0 mm
17:02 53.5 °F /  11.9 °C 49.7 °F /  9.8 °C 30.14 in /  1020.5 hPa Calm     87 % 0.00 in /  0 mm
17:10 52.8 °F /  11.6 °C 49.3 °F /  9.6 °C 30.14 in /  1020.5 hPa Calm     88 % 0.00 in /  0 mm
17:21 51.7 °F /  10.9 °C 48.6 °F /  9.2 °C 30.14 in /  1020.5 hPa Calm     89 % 0.00 in /  0 mm
17:27 51.2 °F /  10.7 °C 48.4 °F /  9.1 °C 30.14 in /  1020.5 hPa Calm     90 % 0.00 in /  0 mm
17:43 50.4 °F /  10.2 °C 48.2 °F /  9 °C 30.13 in /  1020.2 hPa Calm     92 % 0.00 in /  0 mm
17:52 50.0 °F /  10 °C 47.5 °F /  8.6 °C 30.14 in /  1020.5 hPa Calm     91 % 0.00 in /  0 mm
17:57 49.8 °F /  9.9 °C 47.6 °F /  8.7 °C 30.14 in /  1020.5 hPa Calm     92 % 0.00 in /  0 mm
18:03 49.7 °F /  9.8 °C 47.8 °F /  8.8 °C 30.14 in /  1020.5 hPa Calm     93 % 0.00 in /  0 mm
18:08 49.9 °F /  9.9 °C 48.2 °F /  9 °C 30.14 in /  1020.5 hPa Calm     94 % 0.00 in /  0 mm
18:14 49.7 °F /  9.8 °C 48.0 °F /  8.9 °C 30.13 in /  1020.2 hPa Calm     94 % 0.00 in /  0 mm
18:19 49.4 °F /  9.7 °C 47.5 °F /  8.6 °C 30.14 in /  1020.5 hPa Calm     93 % 0.00 in /  0 mm
18:25 49.1 °F /  9.5 °C 47.4 °F /  8.6 °C 30.14 in /  1020.5 hPa Calm     94 % 0.00 in /  0 mm
18:31 49.0 °F /  9.4 °C 47.3 °F /  8.5 °C 30.15 in /  1020.9 hPa Calm     94 % 0.00 in /  0 mm
18:37 48.8 °F /  9.3 °C 47.4 °F /  8.6 °C 30.15 in /  1020.9 hPa Calm     95 % 0.00 in /  0 mm
18:43 48.7 °F /  9.3 °C 47.3 °F /  8.5 °C 30.15 in /  1020.9 hPa Calm     95 % 0.00 in /  0 mm
19:01 48.0 °F /  8.9 °C 46.6 °F /  8.1 °C 30.16 in /  1021.2 hPa Calm     95 % 0.00 in /  0 mm
19:09 47.6 °F /  8.7 °C 46.2 °F /  7.9 °C 30.17 in /  1021.6 hPa Calm     95 % 0.00 in /  0 mm
19:15 47.5 °F /  8.6 °C 46.1 °F /  7.8 °C 30.17 in /  1021.6 hPa Calm     95 % 0.00 in /  0 mm
19:23 47.4 °F /  8.6 °C 46.0 °F /  7.8 °C 30.17 in /  1021.6 hPa Calm     95 % 0.00 in /  0 mm
19:30 47.6 °F /  8.7 °C 46.5 °F /  8.1 °C 30.18 in /  1021.9 hPa Calm     96 % 0.00 in /  0 mm
19:40 47.2 °F /  8.4 °C 46.1 °F /  7.8 °C 30.18 in /  1021.9 hPa Calm     96 % 0.00 in /  0 mm
19:46 47.0 °F /  8.3 °C 45.9 °F /  7.7 °C 30.18 in /  1021.9 hPa Calm     96 % 0.00 in /  0 mm
19:58 46.8 °F /  8.2 °C 45.7 °F /  7.6 °C 30.17 in /  1021.6 hPa Calm     96 % 0.00 in /  0 mm
20:04 46.9 °F /  8.3 °C 45.8 °F /  7.7 °C 30.17 in /  1021.6 hPa Calm     96 % 0.00 in /  0 mm
20:11 46.9 °F /  8.3 °C 45.8 °F /  7.7 °C 30.17 in /  1021.6 hPa Calm     96 % 0.00 in /  0 mm
20:26 46.5 °F /  8.1 °C 45.4 °F /  7.4 °C 30.17 in /  1021.6 hPa Calm     96 % 0.00 in /  0 mm
20:34 46.7 °F /  8.2 °C 45.6 °F /  7.6 °C 30.17 in /  1021.6 hPa Calm     96 % 0.00 in /  0 mm
20:39 46.7 °F /  8.2 °C 45.6 °F /  7.6 °C 30.18 in /  1021.9 hPa Calm     96 % 0.00 in /  0 mm
20:44 46.5 °F /  8.1 °C 45.4 °F /  7.4 °C 30.18 in /  1021.9 hPa Calm     96 % 0.00 in /  0 mm
20:50 45.9 °F /  7.7 °C 44.8 °F /  7.1 °C 30.18 in /  1021.9 hPa Calm     96 % 0.00 in /  0 mm
21:04 45.8 °F /  7.7 °C 44.7 °F /  7.1 °C 30.17 in /  1021.6 hPa Calm     96 % 0.00 in /  0 mm
21:12 45.8 °F /  7.7 °C 44.7 °F /  7.1 °C 30.18 in /  1021.9 hPa Calm     96 % 0.00 in /  0 mm
21:17 45.8 °F /  7.7 °C 44.7 °F /  7.1 °C 30.17 in /  1021.6 hPa Calm     96 % 0.00 in /  0 mm
21:22 46.1 °F /  7.8 °C 45.0 °F /  7.2 °C 30.18 in /  1021.9 hPa Calm     96 % 0.00 in /  0 mm
21:27 46.4 °F /  8 °C 45.6 °F /  7.6 °C 30.17 in /  1021.6 hPa SE 1.2 mph /  1.9 km/h   97 % 0.00 in /  0 mm
21:41 46.6 °F /  8.1 °C 45.5 °F /  7.5 °C 30.16 in /  1021.2 hPa Calm     96 % 0.00 in /  0 mm
21:49 46.9 °F /  8.3 °C 46.1 °F /  7.8 °C 30.17 in /  1021.6 hPa Calm     97 % 0.00 in /  0 mm
21:54 47.3 °F /  8.5 °C 46.5 °F /  8.1 °C 30.16 in /  1021.2 hPa Calm     97 % 0.00 in /  0 mm
22:03 47.4 °F /  8.6 °C 46.6 °F /  8.1 °C 30.16 in /  1021.2 hPa Calm     97 % 0.00 in /  0 mm
22:18 47.2 °F /  8.4 °C 46.1 °F /  7.8 °C 30.16 in /  1021.2 hPa Calm     96 % 0.00 in /  0 mm
22:25 47.2 °F /  8.4 °C 46.1 °F /  7.8 °C 30.16 in /  1021.2 hPa Calm     96 % 0.00 in /  0 mm
22:39 47.1 °F /  8.4 °C 46.0 °F /  7.8 °C 30.15 in /  1020.9 hPa Calm     96 % 0.00 in /  0 mm
22:49 47.1 °F /  8.4 °C 46.3 °F /  7.9 °C 30.15 in /  1020.9 hPa Calm     97 % 0.00 in /  0 mm
22:56 47.1 °F /  8.4 °C 46.3 °F /  7.9 °C 30.16 in /  1021.2 hPa Calm     97 % 0.00 in /  0 mm
23:06 47.2 °F /  8.4 °C 46.4 °F /  8 °C 30.15 in /  1020.9 hPa Calm     97 % 0.00 in /  0 mm
23:14 47.1 °F /  8.4 °C 46.3 °F /  7.9 °C 30.14 in /  1020.5 hPa ESE 1.2 mph /  1.9 km/h   97 % 0.00 in /  0 mm
23:24 47.1 °F /  8.4 °C 46.3 °F /  7.9 °C 30.16 in /  1021.2 hPa Calm     97 % 0.00 in /  0 mm
23:30 47.0 °F /  8.3 °C 46.2 °F /  7.9 °C 30.17 in /  1021.6 hPa WNW 1.2 mph /  1.9 km/h 1.2 mph /  1.9 km/h 97 % 0.00 in /  0 mm
23:38 46.8 °F /  8.2 °C 46.0 °F /  7.8 °C 30.17 in /  1021.6 hPa Calm     97 % 0.00 in /  0 mm
23:56 46.8 °F /  8.2 °C 46.0 °F /  7.8 °C 30.16 in /  1021.2 hPa Calm     97 % 0.00 in /  0 mm
Park Place, Exeter, Tulare County, California, USA
Compliments of Weather Underground - 2 mb